createdAt,value
2018-04-14T00:01:27.191Z,100829.59
2018-04-14T00:03:53.021Z,100833.16
2018-04-14T00:06:18.811Z,100838.45
2018-04-14T00:08:44.564Z,100837.08
2018-04-14T00:11:10.300Z,100832.69
2018-04-14T00:13:36.035Z,100826.47
2018-04-14T00:16:01.760Z,100826.83
2018-04-14T00:18:27.533Z,100822.48
2018-04-14T00:20:53.281Z,100819.87
2018-04-14T00:23:19.036Z,100818.52
2018-04-14T00:25:44.759Z,100819.83
2018-04-14T00:28:10.485Z,100832.09
2018-04-14T00:30:36.220Z,100830.94
2018-04-14T00:33:01.986Z,100821.42
2018-04-14T00:35:27.710Z,100818.50
2018-04-14T00:37:53.427Z,100818.58
2018-04-14T00:40:19.161Z,100818.16
2018-04-14T00:42:44.893Z,100818.23
2018-04-14T00:45:10.677Z,100822.16
2018-04-14T00:47:36.404Z,100826.94
2018-04-14T00:50:02.168Z,100832.19
2018-04-14T00:52:28.276Z,100823.41
2018-04-14T00:54:54.031Z,100818.21
2018-04-14T00:57:19.763Z,100822.55
2018-04-14T00:59:45.496Z,100816.03
2018-04-14T01:02:11.251Z,100808.97
2018-04-14T01:04:36.984Z,100800.14
2018-04-14T01:07:02.699Z,100805.41
2018-04-14T01:09:28.420Z,100809.77
2018-04-14T01:11:54.168Z,100805.89
2018-04-14T01:14:19.908Z,100802.44
2018-04-14T01:16:45.631Z,100804.19
2018-04-14T01:19:11.377Z,100814.75
2018-04-14T01:21:37.093Z,100815.09
2018-04-14T01:24:02.836Z,100813.58
2018-04-14T01:26:28.803Z,100815.72
2018-04-14T01:28:54.544Z,100813.55
2018-04-14T01:31:20.277Z,100809.70
2018-04-14T01:33:46.017Z,100808.36
2018-04-14T01:36:11.869Z,100812.33
2018-04-14T01:38:37.596Z,100820.89
2018-04-14T01:41:03.349Z,100819.09
2018-04-14T01:43:29.072Z,100839.28
2018-04-14T01:45:54.804Z,100844.11
2018-04-14T01:48:20.531Z,100850.30
2018-04-14T01:50:46.256Z,100848.82
2018-04-14T01:53:11.975Z,100850.98
2018-04-14T01:55:43.968Z,100865.08
2018-04-14T01:58:09.744Z,100876.98
2018-04-14T02:00:35.520Z,100887.48
2018-04-14T02:03:01.267Z,100871.20
2018-04-14T02:05:27.016Z,100862.33
2018-04-14T02:07:52.745Z,100870.65
2018-04-14T02:10:18.581Z,100864.06
2018-04-14T02:12:44.295Z,100862.72
2018-04-14T02:15:10.028Z,100856.13
2018-04-14T02:17:35.756Z,100857.37
2018-04-14T02:20:01.506Z,100852.97
2018-04-14T02:22:27.223Z,100863.09
2018-04-14T02:24:52.960Z,100870.26
2018-04-14T02:27:18.686Z,100882.57
2018-04-14T02:29:44.410Z,100882.47
2018-04-14T02:32:10.139Z,100878.84
2018-04-14T02:34:36.864Z,100878.80
2018-04-14T02:37:03.647Z,100876.58
2018-04-14T02:39:29.406Z,100874.41
2018-04-14T02:41:55.128Z,100877.66
2018-04-14T02:44:20.852Z,100869.81
2018-04-14T02:46:46.608Z,100871.96
2018-04-14T02:49:12.337Z,100872.02
2018-04-14T02:51:38.078Z,100869.80
2018-04-14T02:54:03.805Z,100876.38
2018-04-14T02:56:29.540Z,100882.16
2018-04-14T02:58:55.281Z,100889.24
2018-04-14T03:01:21.019Z,100894.39
2018-04-14T03:03:46.740Z,100904.94
2018-04-14T03:06:12.472Z,100911.45
2018-04-14T03:08:38.207Z,100914.44
2018-04-14T03:11:03.952Z,100905.31
2018-04-14T03:13:29.673Z,100908.80
2018-04-14T03:15:55.396Z,100910.55
2018-04-14T03:18:21.112Z,100910.95
2018-04-14T03:20:46.828Z,100906.14
2018-04-14T03:23:12.552Z,100913.14
2018-04-14T03:25:38.307Z,100905.63
2018-04-14T03:28:04.020Z,100898.17
2018-04-14T03:30:29.760Z,100899.06
2018-04-14T03:32:55.487Z,100899.06
2018-04-14T03:35:21.221Z,100903.92
2018-04-14T03:37:46.957Z,100909.22
2018-04-14T03:40:12.713Z,100897.75
2018-04-14T03:42:38.461Z,100899.97
2018-04-14T03:45:04.193Z,100901.73
2018-04-14T03:47:29.944Z,100900.89
2018-04-14T03:49:55.699Z,100899.16
2018-04-14T03:52:21.438Z,100903.14
2018-04-14T03:54:47.165Z,100903.48
2018-04-14T03:57:12.892Z,100912.77
2018-04-14T03:59:38.632Z,100912.80
2018-04-14T04:02:04.380Z,100914.52
2018-04-14T04:04:30.133Z,100915.41
2018-04-14T04:06:55.858Z,100905.77
2018-04-14T04:09:21.588Z,100911.98
2018-04-14T04:11:47.315Z,100916.27
2018-04-14T04:14:13.031Z,100913.19
2018-04-14T04:16:38.776Z,100911.43
2018-04-14T04:19:16.845Z,100904.44
2018-04-14T04:21:55.060Z,100904.41
2018-04-14T04:24:33.240Z,100907.09
2018-04-14T04:26:58.985Z,100912.77
2018-04-14T04:29:24.720Z,100911.02
2018-04-14T04:31:50.465Z,100911.39
2018-04-14T04:34:16.196Z,100916.22
2018-04-14T04:36:41.941Z,100923.67
2018-04-14T04:39:07.665Z,100921.56
2018-04-14T04:41:33.400Z,100925.02
2018-04-14T04:43:59.128Z,100925.45
2018-04-14T04:46:24.868Z,100924.13
2018-04-14T04:48:50.649Z,100925.84
2018-04-14T04:51:16.349Z,100928.42
2018-04-14T04:53:42.089Z,100925.77
2018-04-14T04:56:07.827Z,100916.55
2018-04-14T04:58:33.577Z,100923.94
2018-04-14T05:00:59.301Z,100919.13
2018-04-14T05:03:25.027Z,100924.38
2018-04-14T05:05:50.753Z,100919.52
2018-04-14T05:08:16.485Z,100922.16
2018-04-14T05:10:42.204Z,100923.84
2018-04-14T05:13:07.930Z,100915.91
2018-04-14T05:15:33.666Z,100924.72
2018-04-14T05:17:59.405Z,100944.92
2018-04-14T05:20:25.136Z,100957.66
2018-04-14T05:22:50.892Z,100960.69
2018-04-14T05:25:16.626Z,100957.59
2018-04-14T05:27:42.387Z,100963.33
2018-04-14T05:30:08.113Z,100969.47
2018-04-14T05:32:33.861Z,100973.87
2018-04-14T05:34:59.589Z,100973.47
2018-04-14T05:37:25.325Z,100978.77
2018-04-14T05:39:51.047Z,100977.53
2018-04-14T05:42:16.781Z,100981.44
2018-04-14T05:44:42.520Z,100982.00
2018-04-14T05:47:08.268Z,100981.20
2018-04-14T05:49:33.992Z,100982.52
2018-04-14T05:51:59.735Z,100988.22
2018-04-14T05:54:25.495Z,100980.47
2018-04-14T05:56:51.209Z,100987.11
2018-04-14T05:59:16.944Z,100983.98
2018-04-14T06:01:42.689Z,100994.54
2018-04-14T06:04:08.417Z,100984.84
2018-04-14T06:06:34.137Z,100985.28
2018-04-14T06:08:59.880Z,100982.55
2018-04-14T06:11:25.584Z,100975.14
2018-04-14T06:13:51.312Z,100983.05
2018-04-14T06:16:17.040Z,100985.73
2018-04-14T06:18:42.776Z,100993.64
2018-04-14T06:21:08.507Z,100990.11
2018-04-14T06:23:34.245Z,100992.73
2018-04-14T06:25:59.972Z,100997.91
2018-04-14T06:28:25.707Z,100995.69
2018-04-14T06:30:51.440Z,100992.55
2018-04-14T06:33:17.180Z,101003.09
2018-04-14T06:35:42.904Z,101016.25
2018-04-14T06:38:08.642Z,101022.05
2018-04-14T06:40:34.382Z,101026.48
2018-04-14T06:43:00.124Z,101041.44
2018-04-14T06:45:25.849Z,101046.64
2018-04-14T06:47:51.646Z,101041.35
2018-04-14T06:50:17.345Z,101050.10
2018-04-14T06:52:43.098Z,101046.09
2018-04-14T06:55:08.835Z,101043.45
2018-04-14T06:57:34.598Z,101052.72
2018-04-14T07:00:00.336Z,101059.23
2018-04-14T07:02:26.085Z,101062.70
2018-04-14T07:04:51.826Z,101058.30
2018-04-14T07:07:17.568Z,101061.86
2018-04-14T07:09:43.309Z,101068.89
2018-04-14T07:12:09.045Z,101077.20
2018-04-14T07:14:34.765Z,101078.55
2018-04-14T07:17:00.496Z,101065.89
2018-04-14T07:19:26.239Z,101060.20
2018-04-14T07:21:51.967Z,101066.25
2018-04-14T07:24:17.707Z,101071.84
2018-04-14T07:26:43.440Z,101071.84
2018-04-14T07:29:09.179Z,101075.80
2018-04-14T07:31:34.900Z,101081.91
2018-04-14T07:34:00.645Z,101077.98
2018-04-14T07:36:26.374Z,101091.97
2018-04-14T07:38:52.123Z,101098.52
2018-04-14T07:41:17.840Z,101099.37
2018-04-14T07:43:43.577Z,101094.40
2018-04-14T07:46:09.317Z,101104.21
2018-04-14T07:48:35.067Z,101107.56
2018-04-14T07:51:00.801Z,101108.09
2018-04-14T07:53:26.543Z,101107.67
2018-04-14T07:55:52.260Z,101096.77
2018-04-14T07:58:18.010Z,101092.75
2018-04-14T08:00:43.756Z,101105.38
2018-04-14T08:03:09.508Z,101106.84
2018-04-14T08:05:35.242Z,101103.85
2018-04-14T08:08:00.983Z,101098.14
2018-04-14T08:10:26.708Z,101103.45
2018-04-14T08:12:52.444Z,101100.78
2018-04-14T08:15:18.186Z,101105.23
2018-04-14T08:17:43.945Z,101110.98
2018-04-14T08:20:09.680Z,101117.09
2018-04-14T08:22:35.427Z,101111.73
2018-04-14T08:25:01.184Z,101108.17
2018-04-14T08:27:26.913Z,101106.91
2018-04-14T08:29:52.648Z,101107.22
2018-04-14T08:32:18.387Z,101115.08
2018-04-14T08:34:44.120Z,101120.33
2018-04-14T08:37:09.844Z,101127.92
2018-04-14T08:39:35.580Z,101131.53
2018-04-14T08:42:01.320Z,101128.92
2018-04-14T08:44:27.053Z,101125.41
2018-04-14T08:46:52.792Z,101134.48
2018-04-14T08:49:18.538Z,101129.55
2018-04-14T08:51:44.268Z,101124.82
2018-04-14T08:54:10.031Z,101129.67
2018-04-14T08:56:35.764Z,101132.83
2018-04-14T08:59:01.524Z,101132.21
2018-04-14T09:01:27.255Z,101137.55
2018-04-14T09:03:52.984Z,101134.08
2018-04-14T09:06:18.705Z,101144.03
2018-04-14T09:08:44.442Z,101144.91
2018-04-14T09:11:10.177Z,101136.67
2018-04-14T09:13:35.919Z,101137.88
2018-04-14T09:16:01.664Z,101144.88
2018-04-14T09:18:27.404Z,101140.52
2018-04-14T09:20:53.220Z,101144.44
2018-04-14T09:23:20.393Z,101146.11
2018-04-14T09:25:47.061Z,101147.12
2018-04-14T09:28:12.788Z,101149.23
2018-04-14T09:30:38.521Z,101153.66
2018-04-14T09:33:04.267Z,101151.46
2018-04-14T09:35:30.006Z,101153.94
2018-04-14T09:37:55.737Z,101155.72
2018-04-14T09:40:21.620Z,101154.45
2018-04-14T09:42:47.360Z,101157.46
2018-04-14T09:45:13.109Z,101171.00
2018-04-14T09:47:38.848Z,101167.44
2018-04-14T09:50:04.612Z,101166.61
2018-04-14T09:52:30.340Z,101170.22
2018-04-14T09:54:56.072Z,101178.12
2018-04-14T09:57:22.072Z,101180.45
2018-04-14T09:59:47.835Z,101181.87
2018-04-14T10:02:13.979Z,101183.58
2018-04-14T10:04:40.031Z,101189.66
2018-04-14T10:07:05.769Z,101187.51
2018-04-14T10:09:31.604Z,101181.70
2018-04-14T10:11:57.358Z,101188.14
2018-04-14T10:14:23.096Z,101188.09
2018-04-14T10:16:48.825Z,101191.52
2018-04-14T10:19:14.569Z,101197.09
2018-04-14T10:21:40.291Z,101200.63
2018-04-14T10:24:06.020Z,101201.09
2018-04-14T10:26:31.737Z,101199.58
2018-04-14T10:28:57.756Z,101204.55
2018-04-14T10:31:23.500Z,101200.94
2018-04-14T10:33:49.227Z,101208.94
2018-04-14T10:36:14.968Z,101212.04
2018-04-14T10:38:40.708Z,101211.33
2018-04-14T10:41:06.450Z,101208.25
2018-04-14T10:43:32.188Z,101217.92
2018-04-14T10:45:57.924Z,101213.09
2018-04-14T10:48:23.684Z,101210.94
2018-04-14T10:50:49.425Z,101216.39
2018-04-14T10:53:15.168Z,101218.05
2018-04-14T10:55:40.908Z,101223.30
2018-04-14T10:58:06.640Z,101219.77
2018-04-14T11:00:32.367Z,101234.22
2018-04-14T11:02:58.105Z,101233.78
2018-04-14T11:05:23.852Z,101236.90
2018-04-14T11:07:49.580Z,101240.53
2018-04-14T11:10:15.320Z,101243.58
2018-04-14T11:12:41.060Z,101251.38
2018-04-14T11:15:06.807Z,101252.72
2018-04-14T11:17:32.534Z,101251.86
2018-04-14T11:19:58.273Z,101246.56
2018-04-14T11:22:23.998Z,101245.27
2018-04-14T11:24:49.747Z,101253.52
2018-04-14T11:27:15.468Z,101243.08
2018-04-14T11:29:41.213Z,101251.03
2018-04-14T11:32:06.936Z,101247.92
2018-04-14T11:34:32.668Z,101253.24
2018-04-14T11:36:58.388Z,101261.91
2018-04-14T11:39:24.127Z,101254.16
2018-04-14T11:41:49.871Z,101260.41
2018-04-14T11:44:15.608Z,101266.19
2018-04-14T11:46:41.352Z,101267.94
2018-04-14T11:49:07.089Z,101270.59
2018-04-14T11:51:32.828Z,101276.33
2018-04-14T11:53:58.556Z,101282.39
2018-04-14T11:56:24.297Z,101289.92
2018-04-14T11:58:50.041Z,101290.83
2018-04-14T12:01:15.772Z,101292.65
2018-04-14T12:03:41.545Z,101298.77
2018-04-14T12:06:07.250Z,101296.50
2018-04-14T12:08:33.000Z,101305.75
2018-04-14T12:10:58.741Z,101309.73
2018-04-14T12:13:24.480Z,101304.85
2018-04-14T12:15:50.227Z,101318.00
2018-04-14T12:18:15.957Z,101317.15
2018-04-14T12:20:41.692Z,101321.52
2018-04-14T12:23:07.428Z,101322.42
2018-04-14T12:25:33.172Z,101328.44
2018-04-14T12:27:58.905Z,101327.59
2018-04-14T12:30:24.646Z,101326.66
2018-04-14T12:32:50.373Z,101331.37
2018-04-14T12:35:16.112Z,101342.03
2018-04-14T12:37:41.848Z,101341.91
2018-04-14T12:40:07.608Z,101333.09
2018-04-14T12:42:33.340Z,101339.20
2018-04-14T12:44:59.093Z,101341.81
2018-04-14T12:47:24.832Z,101343.63
2018-04-14T12:49:50.564Z,101346.67
2018-04-14T12:52:16.299Z,101350.73
2018-04-14T12:54:42.039Z,101351.97
2018-04-14T12:57:07.774Z,101351.98
2018-04-14T12:59:33.514Z,101351.49
2018-04-14T13:01:59.264Z,101351.49
2018-04-14T13:04:24.992Z,101356.32
2018-04-14T13:06:50.732Z,101363.32
2018-04-14T13:09:16.510Z,101366.43
2018-04-14T13:11:42.222Z,101369.11
2018-04-14T13:14:07.956Z,101369.62
2018-04-14T13:16:33.703Z,101377.09
2018-04-14T13:18:59.456Z,101378.03
2018-04-14T13:21:25.192Z,101381.16
2018-04-14T13:23:50.924Z,101387.34
2018-04-14T13:26:16.681Z,101394.82
2018-04-14T13:28:42.407Z,101387.45
2018-04-14T13:31:08.155Z,101383.44
2018-04-14T13:33:33.887Z,101394.48
2018-04-14T13:35:59.629Z,101390.94
2018-04-14T13:38:25.364Z,101391.36
2018-04-14T13:40:51.109Z,101393.55
2018-04-14T13:43:16.849Z,101393.09
2018-04-14T13:45:42.592Z,101404.07
2018-04-14T13:48:08.332Z,101397.06
2018-04-14T13:50:34.063Z,101396.59
2018-04-14T13:52:59.794Z,101408.06
2018-04-14T13:55:25.524Z,101407.66
2018-04-14T13:57:51.258Z,101404.58
2018-04-14T14:00:16.992Z,101405.89
2018-04-14T14:02:42.715Z,101412.95
2018-04-14T14:05:08.444Z,101411.62
2018-04-14T14:07:34.196Z,101414.23
2018-04-14T14:09:59.922Z,101409.36
2018-04-14T14:12:25.652Z,101410.73
2018-04-14T14:14:51.403Z,101416.01
2018-04-14T14:17:17.153Z,101427.02
2018-04-14T14:19:42.875Z,101421.31
2018-04-14T14:22:08.624Z,101419.63
2018-04-14T14:24:34.363Z,101421.80
2018-04-14T14:27:00.109Z,101421.77
2018-04-14T14:29:25.856Z,101428.80
2018-04-14T14:31:51.580Z,101426.22
2018-04-14T14:34:17.307Z,101430.19
2018-04-14T14:36:43.044Z,101431.92
2018-04-14T14:39:08.764Z,101435.04
2018-04-14T14:41:34.496Z,101439.87
2018-04-14T14:44:00.229Z,101445.53
2018-04-14T14:46:25.977Z,101438.50
2018-04-14T14:48:51.711Z,101446.85
2018-04-14T14:51:17.440Z,101446.39
2018-04-14T14:53:43.176Z,101444.23
2018-04-14T14:56:08.913Z,101442.84
2018-04-14T14:58:34.642Z,101445.06
2018-04-14T15:01:00.384Z,101445.05
2018-04-14T15:03:26.123Z,101439.77
2018-04-14T15:05:51.856Z,101444.13
2018-04-14T15:08:17.603Z,101443.66
2018-04-14T15:10:43.332Z,101446.32
2018-04-14T15:13:09.079Z,101447.59
2018-04-14T15:15:34.810Z,101445.88
2018-04-14T15:18:00.549Z,101448.05
2018-04-14T15:20:26.276Z,101451.56
2018-04-14T15:22:52.012Z,101451.95
2018-04-14T15:25:17.757Z,101451.47
2018-04-14T15:27:43.487Z,101460.73
2018-04-14T15:30:09.207Z,101451.89
2018-04-14T15:32:34.931Z,101459.00
2018-04-14T15:35:00.664Z,101461.12
2018-04-14T15:37:26.400Z,101469.05
2018-04-14T15:39:52.120Z,101469.05
2018-04-14T15:42:17.847Z,101476.55
2018-04-14T15:44:43.576Z,101480.05
2018-04-14T15:47:09.322Z,101481.34
2018-04-14T15:49:35.056Z,101489.74
2018-04-14T15:52:00.797Z,101474.31
2018-04-14T15:54:26.517Z,101476.09
2018-04-14T15:56:52.249Z,101492.37
2018-04-14T15:59:17.988Z,101485.75
2018-04-14T16:01:43.720Z,101492.31
2018-04-14T16:04:09.888Z,101487.05
2018-04-14T16:06:35.200Z,101496.70
2018-04-14T16:09:00.944Z,101498.03
2018-04-14T16:11:26.685Z,101492.72
2018-04-14T16:13:52.421Z,101499.75
2018-04-14T16:16:18.156Z,101495.38
2018-04-14T16:18:43.920Z,101502.38
2018-04-14T16:21:09.656Z,101500.61
2018-04-14T16:23:35.448Z,101503.25
2018-04-14T16:26:01.155Z,101508.99
2018-04-14T16:28:26.889Z,101504.16
2018-04-14T16:30:52.616Z,101508.52
2018-04-14T16:33:18.347Z,101505.88
2018-04-14T16:35:44.070Z,101506.34
2018-04-14T16:38:09.800Z,101513.78
2018-04-14T16:40:35.524Z,101510.72
2018-04-14T16:43:01.256Z,101506.34
2018-04-14T16:45:26.980Z,101512.52
2018-04-14T16:47:52.724Z,101512.08
2018-04-14T16:50:18.468Z,101521.77
2018-04-14T16:52:44.199Z,101514.30
2018-04-14T16:55:09.918Z,101516.52
2018-04-14T16:57:35.663Z,101520.91
2018-04-14T17:00:01.417Z,101525.28
2018-04-14T17:02:27.145Z,101516.06
2018-04-14T17:04:52.895Z,101515.22
2018-04-14T17:07:18.620Z,101514.82
2018-04-14T17:09:44.360Z,101514.34
2018-04-14T17:12:10.073Z,101508.67
2018-04-14T17:14:35.805Z,101519.22
2018-04-14T17:17:01.540Z,101513.11
2018-04-14T17:19:27.284Z,101511.78
2018-04-14T17:21:53.008Z,101517.53
2018-04-14T17:24:18.743Z,101511.37
2018-04-14T17:26:44.501Z,101512.27
2018-04-14T17:29:10.241Z,101516.61
2018-04-14T17:31:35.972Z,101514.45
2018-04-14T17:34:02.508Z,101513.09
2018-04-14T17:36:28.224Z,101510.91
2018-04-14T17:38:53.956Z,101507.00
2018-04-14T17:41:19.683Z,101507.41
2018-04-14T17:43:45.415Z,101513.14
2018-04-14T17:46:11.131Z,101508.77
2018-04-14T17:48:36.872Z,101508.33
2018-04-14T17:51:02.597Z,101509.20
2018-04-14T17:53:28.323Z,101506.58
2018-04-14T17:55:54.056Z,101511.41
2018-04-14T17:58:19.805Z,101503.49
2018-04-14T18:00:45.540Z,101509.23
2018-04-14T18:03:11.288Z,101512.73
2018-04-14T18:05:37.031Z,101516.25
2018-04-14T18:08:02.767Z,101506.14
2018-04-14T18:10:28.488Z,101504.86
2018-04-14T18:12:54.278Z,101500.91
2018-04-14T18:15:20.012Z,101503.98
2018-04-14T18:17:45.774Z,101509.67
2018-04-14T18:20:11.582Z,101516.71
2018-04-14T18:22:37.372Z,101520.23
2018-04-14T18:25:03.201Z,101518.04
2018-04-14T18:27:28.996Z,101527.27
2018-04-14T18:29:54.761Z,101534.30
2018-04-14T18:32:20.507Z,101541.76
2018-04-14T18:34:46.251Z,101534.75
2018-04-14T18:37:12.020Z,101546.17
2018-04-14T18:39:37.731Z,101550.14
2018-04-14T18:42:03.455Z,101557.16
2018-04-14T18:44:29.598Z,101554.53
2018-04-14T18:46:56.591Z,101558.07
2018-04-14T18:49:22.774Z,101558.06
2018-04-14T18:51:48.932Z,101553.24
2018-04-14T18:54:14.720Z,101558.95
2018-04-14T18:56:40.459Z,101557.62
2018-04-14T18:59:06.210Z,101558.51
2018-04-14T19:01:31.921Z,101565.53
2018-04-14T19:03:58.956Z,101562.45
2018-04-14T19:06:24.695Z,101555.02
2018-04-14T19:08:50.429Z,101566.43
2018-04-14T19:11:16.145Z,101564.69
2018-04-14T19:13:41.929Z,101566.88
2018-04-14T19:16:07.608Z,101570.83
2018-04-14T19:18:33.345Z,101569.08
2018-04-14T19:20:59.067Z,101576.11
2018-04-14T19:23:24.799Z,101578.75
2018-04-14T19:25:50.538Z,101578.76
2018-04-14T19:28:16.256Z,101572.63
2018-04-14T19:30:41.992Z,101580.06
2018-04-14T19:33:07.728Z,101586.23
2018-04-14T19:35:33.466Z,101580.08
2018-04-14T19:37:59.249Z,101579.63
2018-04-14T19:40:24.942Z,101585.80
2018-04-14T19:42:50.668Z,101587.13
2018-04-14T19:45:16.403Z,101586.66
2018-04-14T19:47:42.124Z,101587.97
2018-04-14T19:50:07.855Z,101598.98
2018-04-14T19:52:33.586Z,101593.25
2018-04-14T19:54:59.327Z,101592.80
2018-04-14T19:57:25.052Z,101587.53
2018-04-14T19:59:50.803Z,101581.82
2018-04-14T20:02:16.517Z,101592.81
2018-04-14T20:04:42.249Z,101586.20
2018-04-14T20:07:08.055Z,101595.00
2018-04-14T20:09:33.744Z,101592.36
2018-04-14T20:11:59.472Z,101595.87
2018-04-14T20:14:25.208Z,101598.53
2018-04-14T20:16:50.928Z,101592.38
2018-04-14T20:19:16.660Z,101592.36
2018-04-14T20:21:42.380Z,101592.81
2018-04-14T20:24:08.112Z,101592.38
2018-04-14T20:26:33.840Z,101598.06
2018-04-14T20:28:59.575Z,101602.95
2018-04-14T20:31:25.303Z,101602.02
2018-04-14T20:33:51.045Z,101598.97
2018-04-14T20:36:16.796Z,101596.33
2018-04-14T20:38:42.527Z,101591.08
2018-04-14T20:41:08.311Z,101594.13
2018-04-14T20:43:33.992Z,101597.67
2018-04-14T20:45:59.729Z,101593.73
2018-04-14T20:48:25.477Z,101607.38
2018-04-14T20:50:51.209Z,101605.63
2018-04-14T20:53:16.928Z,101615.72
2018-04-14T20:55:42.690Z,101609.15
2018-04-14T20:58:08.411Z,101603.89
2018-04-14T21:00:34.147Z,101606.95
2018-04-14T21:02:59.872Z,101613.97
2018-04-14T21:05:25.612Z,101614.39
2018-04-14T21:07:51.339Z,101612.66
2018-04-14T21:10:17.075Z,101614.42
2018-04-14T21:12:42.810Z,101616.19
2018-04-14T21:15:08.545Z,101602.16
2018-04-14T21:17:34.266Z,101606.98
2018-04-14T21:19:59.996Z,101610.07
2018-04-14T21:22:25.748Z,101606.60
2018-04-14T21:24:51.488Z,101596.92
2018-04-14T21:27:17.209Z,101596.05
2018-04-14T21:29:42.944Z,101595.62
2018-04-14T21:32:08.665Z,101594.75
2018-04-14T21:34:34.409Z,101594.30
2018-04-14T21:37:00.124Z,101591.20
2018-04-14T21:39:25.848Z,101596.08
2018-04-14T21:41:51.577Z,101594.76
2018-04-14T21:44:17.327Z,101587.30
2018-04-14T21:46:43.048Z,101586.89
2018-04-14T21:49:08.788Z,101587.77
2018-04-14T21:51:34.545Z,101582.06
2018-04-14T21:54:00.288Z,101586.45
2018-04-14T21:56:26.025Z,101593.49
2018-04-14T21:58:51.763Z,101593.92
2018-04-14T22:01:17.504Z,101592.17
2018-04-14T22:03:43.227Z,101587.38
2018-04-14T22:06:08.979Z,101592.20
2018-04-14T22:08:34.712Z,101595.28
2018-04-14T22:11:00.447Z,101593.08
2018-04-14T22:13:26.179Z,101605.36
2018-04-14T22:15:51.918Z,101601.88
2018-04-14T22:18:17.645Z,101607.13
2018-04-14T22:20:43.396Z,101606.67
2018-04-14T22:23:09.133Z,101601.43
2018-04-14T22:25:34.869Z,101597.03
2018-04-14T22:28:00.596Z,101591.77
2018-04-14T22:30:26.336Z,101592.23
2018-04-14T22:32:52.072Z,101590.05
2018-04-14T22:35:17.880Z,101591.34
2018-04-14T22:37:43.583Z,101597.51
2018-04-14T22:40:09.323Z,101591.79
2018-04-14T22:42:35.064Z,101604.49
2018-04-14T22:45:00.798Z,101605.40
2018-04-14T22:47:26.541Z,101605.80
2018-04-14T22:49:52.272Z,101617.23
2018-04-14T22:52:18.009Z,101623.36
2018-04-14T22:54:43.743Z,101622.50
2018-04-14T22:57:09.477Z,101621.62
2018-04-14T22:59:35.212Z,101633.47
2018-04-14T23:02:00.952Z,101639.14
2018-04-14T23:04:26.684Z,101637.41
2018-04-14T23:06:52.420Z,101643.97
2018-04-14T23:09:18.152Z,101654.48
2018-04-14T23:11:43.889Z,101655.80
2018-04-14T23:16:41.211Z,101650.97
2018-04-14T23:19:06.932Z,101652.28
2018-04-14T23:21:32.664Z,101648.34
2018-04-14T23:23:58.392Z,101649.19
2018-04-14T23:26:24.149Z,101640.41
2018-04-14T23:28:49.875Z,101643.94
2018-04-14T23:31:15.615Z,101639.52
2018-04-14T23:33:41.344Z,101626.37
2018-04-14T23:36:07.084Z,101632.53
2018-04-14T23:38:32.804Z,101640.86
2018-04-14T23:40:58.545Z,101638.64
2018-04-14T23:43:24.264Z,101626.37
2018-04-14T23:45:50.003Z,101631.19
2018-04-14T23:48:15.739Z,101630.76
2018-04-14T23:50:41.493Z,101633.83
2018-04-14T23:53:07.219Z,101636.00
2018-04-14T23:55:32.942Z,101632.05
2018-04-14T23:57:58.671Z,101633.36
